sensor_id;sensor_type;location;lat;lon;timestamp;temperature;humidity
9980;DHT22;5030;51.532;6.766;2022-10-22T00:01:59;12.40;99.90
9980;DHT22;5030;51.532;6.766;2022-10-22T00:04:25;12.50;99.90
9980;DHT22;5030;51.532;6.766;2022-10-22T00:06:51;12.40;99.90
9980;DHT22;5030;51.532;6.766;2022-10-22T00:09:16;12.30;99.90
9980;DHT22;5030;51.532;6.766;2022-10-22T00:11:42;12.30;99.90
9980;DHT22;5030;51.532;6.766;2022-10-22T00:14:08;12.20;99.90
9980;DHT22;5030;51.532;6.766;2022-10-22T00:16:33;12.30;99.90
9980;DHT22;5030;51.532;6.766;2022-10-22T00:18:59;12.30;99.90
9980;DHT22;5030;51.532;6.766;2022-10-22T00:21:25;12.30;99.90
9980;DHT22;5030;51.532;6.766;2022-10-22T00:23:53;12.20;99.90
9980;DHT22;5030;51.532;6.766;2022-10-22T00:26:21;12.30;99.90
9980;DHT22;5030;51.532;6.766;2022-10-22T00:28:46;12.30;99.90
9980;DHT22;5030;51.532;6.766;2022-10-22T00:31:12;12.30;99.90
9980;DHT22;5030;51.532;6.766;2022-10-22T00:33:40;12.30;99.90
9980;DHT22;5030;51.532;6.766;2022-10-22T00:36:06;12.20;99.90
9980;DHT22;5030;51.532;6.766;2022-10-22T00:38:33;12.20;99.90
9980;DHT22;5030;51.532;6.766;2022-10-22T00:40:58;12.30;99.90
9980;DHT22;5030;51.532;6.766;2022-10-22T00:43:25;12.20;99.90
9980;DHT22;5030;51.532;6.766;2022-10-22T00:45:51;12.20;99.90
9980;DHT22;5030;51.532;6.766;2022-10-22T00:48:24;12.10;99.90
9980;DHT22;5030;51.532;6.766;2022-10-22T00:50:55;12.10;99.90
9980;DHT22;5030;51.532;6.766;2022-10-22T00:53:31;12.10;99.90
9980;DHT22;5030;51.532;6.766;2022-10-22T00:55:59;12.10;99.90
9980;DHT22;5030;51.532;6.766;2022-10-22T00:58:27;12.10;99.90
9980;DHT22;5030;51.532;6.766;2022-10-22T01:00:55;11.90;99.90
9980;DHT22;5030;51.532;6.766;2022-10-22T01:03:21;11.90;99.90
9980;DHT22;5030;51.532;6.766;2022-10-22T01:05:55;11.90;99.90
9980;DHT22;5030;51.532;6.766;2022-10-22T01:08:40;11.90;99.90
9980;DHT22;5030;51.532;6.766;2022-10-22T01:11:18;11.90;99.90
9980;DHT22;5030;51.532;6.766;2022-10-22T01:16:38;11.90;99.90
9980;DHT22;5030;51.532;6.766;2022-10-22T01:19:28;11.80;99.90
9980;DHT22;5030;51.532;6.766;2022-10-22T01:22:32;11.90;99.90
9980;DHT22;5030;51.532;6.766;2022-10-22T01:27:57;11.90;99.90
9980;DHT22;5030;51.532;6.766;2022-10-22T01:30:26;11.80;99.90
9980;DHT22;5030;51.532;6.766;2022-10-22T01:32:55;11.80;99.90
9980;DHT22;5030;51.532;6.766;2022-10-22T01:35:30;11.80;99.90
9980;DHT22;5030;51.532;6.766;2022-10-22T01:38:00;11.80;99.90
9980;DHT22;5030;51.532;6.766;2022-10-22T01:40:28;11.80;99.90
9980;DHT22;5030;51.532;6.766;2022-10-22T01:42:58;11.90;99.90
9980;DHT22;5030;51.532;6.766;2022-10-22T01:45:24;11.90;99.90
9980;DHT22;5030;51.532;6.766;2022-10-22T01:56:03;11.80;99.90
9980;DHT22;5030;51.532;6.766;2022-10-22T02:04:10;12.00;99.90
9980;DHT22;5030;51.532;6.766;2022-10-22T02:06:38;11.90;99.90
9980;DHT22;5030;51.532;6.766;2022-10-22T02:09:06;11.90;99.90
9980;DHT22;5030;51.532;6.766;2022-10-22T02:11:33;11.90;99.90
9980;DHT22;5030;51.532;6.766;2022-10-22T02:14:00;11.90;99.90
9980;DHT22;5030;51.532;6.766;2022-10-22T02:16:31;11.80;99.90
9980;DHT22;5030;51.532;6.766;2022-10-22T02:19:00;11.90;99.90
9980;DHT22;5030;51.532;6.766;2022-10-22T02:21:27;11.80;99.90
9980;DHT22;5030;51.532;6.766;2022-10-22T02:23:53;11.80;99.90
9980;DHT22;5030;51.532;6.766;2022-10-22T02:26:34;11.80;99.90
9980;DHT22;5030;51.532;6.766;2022-10-22T02:31:39;11.80;99.90
9980;DHT22;5030;51.532;6.766;2022-10-22T02:34:10;11.80;99.90
9980;DHT22;5030;51.532;6.766;2022-10-22T02:36:41;11.80;99.90
9980;DHT22;5030;51.532;6.766;2022-10-22T02:39:08;11.70;99.90
9980;DHT22;5030;51.532;6.766;2022-10-22T02:41:36;11.70;99.90
9980;DHT22;5030;51.532;6.766;2022-10-22T02:44:07;11.70;99.90
9980;DHT22;5030;51.532;6.766;2022-10-22T02:46:33;11.60;99.90
9980;DHT22;5030;51.532;6.766;2022-10-22T02:48:59;11.60;99.90
9980;DHT22;5030;51.532;6.766;2022-10-22T02:51:24;11.60;99.90
9980;DHT22;5030;51.532;6.766;2022-10-22T02:53:50;11.60;99.90
9980;DHT22;5030;51.532;6.766;2022-10-22T02:56:16;11.60;99.90
9980;DHT22;5030;51.532;6.766;2022-10-22T02:58:42;11.60;99.90
9980;DHT22;5030;51.532;6.766;2022-10-22T03:01:08;11.70;99.90
9980;DHT22;5030;51.532;6.766;2022-10-22T03:03:33;11.70;99.90
9980;DHT22;5030;51.532;6.766;2022-10-22T03:05:59;11.70;99.90
9980;DHT22;5030;51.532;6.766;2022-10-22T03:08:25;11.60;99.90
9980;DHT22;5030;51.532;6.766;2022-10-22T03:10:50;11.80;99.90
9980;DHT22;5030;51.532;6.766;2022-10-22T03:13:16;11.80;99.90
9980;DHT22;5030;51.532;6.766;2022-10-22T03:15:42;11.70;99.90
9980;DHT22;5030;51.532;6.766;2022-10-22T03:18:08;11.70;99.90
9980;DHT22;5030;51.532;6.766;2022-10-22T03:20:33;11.80;99.90
9980;DHT22;5030;51.532;6.766;2022-10-22T03:23:00;11.80;99.90
9980;DHT22;5030;51.532;6.766;2022-10-22T03:25:27;11.90;99.90
9980;DHT22;5030;51.532;6.766;2022-10-22T03:27:54;12.00;99.90
9980;DHT22;5030;51.532;6.766;2022-10-22T03:30:21;11.90;99.90
9980;DHT22;5030;51.532;6.766;2022-10-22T03:32:47;11.90;99.90
9980;DHT22;5030;51.532;6.766;2022-10-22T03:35:14;12.00;99.90
9980;DHT22;5030;51.532;6.766;2022-10-22T03:37:39;12.10;99.90
9980;DHT22;5030;51.532;6.766;2022-10-22T03:40:07;12.10;99.90
9980;DHT22;5030;51.532;6.766;2022-10-22T03:42:33;12.20;99.90
9980;DHT22;5030;51.532;6.766;2022-10-22T03:44:58;12.20;99.90
9980;DHT22;5030;51.532;6.766;2022-10-22T03:47:24;12.10;99.90
9980;DHT22;5030;51.532;6.766;2022-10-22T03:49:51;12.10;99.90
9980;DHT22;5030;51.532;6.766;2022-10-22T03:52:16;12.10;99.90
9980;DHT22;5030;51.532;6.766;2022-10-22T03:54:43;12.00;99.90
9980;DHT22;5030;51.532;6.766;2022-10-22T03:57:09;12.00;99.90
9980;DHT22;5030;51.532;6.766;2022-10-22T03:59:43;12.00;99.90
9980;DHT22;5030;51.532;6.766;2022-10-22T04:02:11;12.00;99.90
9980;DHT22;5030;51.532;6.766;2022-10-22T04:04:36;12.20;99.90
9980;DHT22;5030;51.532;6.766;2022-10-22T04:07:03;12.10;99.90
9980;DHT22;5030;51.532;6.766;2022-10-22T04:09:33;12.10;99.90
9980;DHT22;5030;51.532;6.766;2022-10-22T04:11:59;12.20;99.90
9980;DHT22;5030;51.532;6.766;2022-10-22T04:14:25;12.20;99.90
9980;DHT22;5030;51.532;6.766;2022-10-22T04:16:51;12.20;99.90
9980;DHT22;5030;51.532;6.766;2022-10-22T04:19:16;12.10;99.90
9980;DHT22;5030;51.532;6.766;2022-10-22T04:21:44;12.20;99.90
9980;DHT22;5030;51.532;6.766;2022-10-22T04:24:09;12.30;99.90
9980;DHT22;5030;51.532;6.766;2022-10-22T04:26:36;12.20;99.90
9980;DHT22;5030;51.532;6.766;2022-10-22T04:29:02;12.10;99.90
9980;DHT22;5030;51.532;6.766;2022-10-22T04:31:29;12.10;99.90
9980;DHT22;5030;51.532;6.766;2022-10-22T04:36:41;12.10;99.90
9980;DHT22;5030;51.532;6.766;2022-10-22T04:39:06;12.30;99.90
9980;DHT22;5030;51.532;6.766;2022-10-22T04:41:34;12.20;99.90
9980;DHT22;5030;51.532;6.766;2022-10-22T04:44:00;12.40;99.90
9980;DHT22;5030;51.532;6.766;2022-10-22T04:46:30;12.30;99.90
9980;DHT22;5030;51.532;6.766;2022-10-22T04:48:56;12.50;99.90
9980;DHT22;5030;51.532;6.766;2022-10-22T04:51:23;12.50;99.90
9980;DHT22;5030;51.532;6.766;2022-10-22T04:53:50;12.50;99.90
9980;DHT22;5030;51.532;6.766;2022-10-22T04:56:23;12.50;99.90
9980;DHT22;5030;51.532;6.766;2022-10-22T04:58:52;12.50;99.90
9980;DHT22;5030;51.532;6.766;2022-10-22T05:01:23;12.40;99.90
9980;DHT22;5030;51.532;6.766;2022-10-22T05:03:51;12.40;99.90
9980;DHT22;5030;51.532;6.766;2022-10-22T05:06:18;12.50;99.90
9980;DHT22;5030;51.532;6.766;2022-10-22T05:08:46;12.50;99.90
9980;DHT22;5030;51.532;6.766;2022-10-22T05:11:14;12.50;99.90
9980;DHT22;5030;51.532;6.766;2022-10-22T05:13:39;12.40;99.90
9980;DHT22;5030;51.532;6.766;2022-10-22T05:16:05;12.40;99.90
9980;DHT22;5030;51.532;6.766;2022-10-22T05:18:42;12.40;99.90
9980;DHT22;5030;51.532;6.766;2022-10-22T05:21:10;12.50;99.90
9980;DHT22;5030;51.532;6.766;2022-10-22T05:23:37;12.50;99.90
9980;DHT22;5030;51.532;6.766;2022-10-22T05:26:05;12.40;99.90
9980;DHT22;5030;51.532;6.766;2022-10-22T05:28:32;12.50;99.90
9980;DHT22;5030;51.532;6.766;2022-10-22T05:30:59;12.50;99.90
9980;DHT22;5030;51.532;6.766;2022-10-22T05:33:27;12.50;99.90
9980;DHT22;5030;51.532;6.766;2022-10-22T05:35:53;12.50;99.90
9980;DHT22;5030;51.532;6.766;2022-10-22T05:38:19;12.50;99.90
9980;DHT22;5030;51.532;6.766;2022-10-22T05:40:45;12.50;99.90
9980;DHT22;5030;51.532;6.766;2022-10-22T05:43:11;12.50;99.90
9980;DHT22;5030;51.532;6.766;2022-10-22T05:45:38;12.40;99.90
9980;DHT22;5030;51.532;6.766;2022-10-22T05:48:05;12.40;99.90
9980;DHT22;5030;51.532;6.766;2022-10-22T05:50:31;12.40;99.90
9980;DHT22;5030;51.532;6.766;2022-10-22T05:52:56;12.40;99.90
9980;DHT22;5030;51.532;6.766;2022-10-22T05:55:22;12.40;99.90
9980;DHT22;5030;51.532;6.766;2022-10-22T05:57:48;12.30;99.90
9980;DHT22;5030;51.532;6.766;2022-10-22T06:00:15;12.30;99.90
9980;DHT22;5030;51.532;6.766;2022-10-22T06:02:41;12.20;99.90
9980;DHT22;5030;51.532;6.766;2022-10-22T06:05:07;12.20;99.90
9980;DHT22;5030;51.532;6.766;2022-10-22T06:07:33;12.10;99.90
9980;DHT22;5030;51.532;6.766;2022-10-22T06:09:59;12.00;99.90
9980;DHT22;5030;51.532;6.766;2022-10-22T06:12:25;12.00;99.90
9980;DHT22;5030;51.532;6.766;2022-10-22T06:14:51;12.10;99.90
9980;DHT22;5030;51.532;6.766;2022-10-22T06:17:16;12.20;99.90
9980;DHT22;5030;51.532;6.766;2022-10-22T06:19:44;12.20;99.90
9980;DHT22;5030;51.532;6.766;2022-10-22T06:22:09;12.10;99.90
9980;DHT22;5030;51.532;6.766;2022-10-22T06:24:35;12.10;99.90
9980;DHT22;5030;51.532;6.766;2022-10-22T06:27:01;12.20;99.90
9980;DHT22;5030;51.532;6.766;2022-10-22T06:29:27;12.40;99.90
9980;DHT22;5030;51.532;6.766;2022-10-22T06:31:53;12.40;99.90
9980;DHT22;5030;51.532;6.766;2022-10-22T06:34:18;12.40;99.90
9980;DHT22;5030;51.532;6.766;2022-10-22T06:36:45;12.30;99.90
9980;DHT22;5030;51.532;6.766;2022-10-22T06:39:14;12.30;99.90
9980;DHT22;5030;51.532;6.766;2022-10-22T06:41:40;12.40;99.90
9980;DHT22;5030;51.532;6.766;2022-10-22T06:44:06;12.50;99.90
9980;DHT22;5030;51.532;6.766;2022-10-22T06:46:31;12.60;99.90
9980;DHT22;5030;51.532;6.766;2022-10-22T06:49:01;12.70;99.90
9980;DHT22;5030;51.532;6.766;2022-10-22T06:51:27;12.70;99.90
9980;DHT22;5030;51.532;6.766;2022-10-22T06:53:55;12.70;99.90
9980;DHT22;5030;51.532;6.766;2022-10-22T06:56:23;12.70;99.90
9980;DHT22;5030;51.532;6.766;2022-10-22T06:58:51;12.90;99.90
9980;DHT22;5030;51.532;6.766;2022-10-22T07:01:19;13.00;99.90
9980;DHT22;5030;51.532;6.766;2022-10-22T07:03:46;13.20;99.90
9980;DHT22;5030;51.532;6.766;2022-10-22T07:06:13;13.40;99.90
9980;DHT22;5030;51.532;6.766;2022-10-22T07:08:39;13.60;99.90
9980;DHT22;5030;51.532;6.766;2022-10-22T07:11:13;13.70;99.90
9980;DHT22;5030;51.532;6.766;2022-10-22T07:13:40;13.80;99.90
9980;DHT22;5030;51.532;6.766;2022-10-22T07:16:07;13.80;99.90
9980;DHT22;5030;51.532;6.766;2022-10-22T07:18:33;13.90;99.90
9980;DHT22;5030;51.532;6.766;2022-10-22T07:21:00;14.00;99.90
9980;DHT22;5030;51.532;6.766;2022-10-22T07:23:26;14.10;99.90
9980;DHT22;5030;51.532;6.766;2022-10-22T07:25:52;14.20;99.90
9980;DHT22;5030;51.532;6.766;2022-10-22T07:28:18;14.20;99.90
9980;DHT22;5030;51.532;6.766;2022-10-22T07:30:44;14.40;99.90
9980;DHT22;5030;51.532;6.766;2022-10-22T07:33:10;14.60;99.90
9980;DHT22;5030;51.532;6.766;2022-10-22T07:35:37;14.70;99.90
9980;DHT22;5030;51.532;6.766;2022-10-22T07:38:04;14.80;99.90
9980;DHT22;5030;51.532;6.766;2022-10-22T07:40:30;15.00;99.90
9980;DHT22;5030;51.532;6.766;2022-10-22T07:42:56;15.10;99.90
9980;DHT22;5030;51.532;6.766;2022-10-22T07:45:21;15.20;99.90
9980;DHT22;5030;51.532;6.766;2022-10-22T07:47:47;15.10;99.90
9980;DHT22;5030;51.532;6.766;2022-10-22T07:50:14;15.20;99.90
9980;DHT22;5030;51.532;6.766;2022-10-22T07:52:40;15.30;99.90
9980;DHT22;5030;51.532;6.766;2022-10-22T07:55:06;15.30;99.90
9980;DHT22;5030;51.532;6.766;2022-10-22T07:57:31;15.30;99.90
9980;DHT22;5030;51.532;6.766;2022-10-22T07:59:57;15.30;99.90
9980;DHT22;5030;51.532;6.766;2022-10-22T08:02:24;15.20;99.90
9980;DHT22;5030;51.532;6.766;2022-10-22T08:04:50;15.20;99.90
9980;DHT22;5030;51.532;6.766;2022-10-22T08:07:16;15.10;99.90
9980;DHT22;5030;51.532;6.766;2022-10-22T08:09:42;15.10;99.90
9980;DHT22;5030;51.532;6.766;2022-10-22T08:12:08;15.20;99.90
9980;DHT22;5030;51.532;6.766;2022-10-22T08:14:33;15.20;99.90
9980;DHT22;5030;51.532;6.766;2022-10-22T08:16:59;15.20;99.90
9980;DHT22;5030;51.532;6.766;2022-10-22T08:19:25;15.30;99.90
9980;DHT22;5030;51.532;6.766;2022-10-22T08:21:50;15.20;99.90
9980;DHT22;5030;51.532;6.766;2022-10-22T08:24:16;15.30;99.90
9980;DHT22;5030;51.532;6.766;2022-10-22T08:26:41;15.40;99.90
9980;DHT22;5030;51.532;6.766;2022-10-22T08:29:07;15.50;99.90
9980;DHT22;5030;51.532;6.766;2022-10-22T08:31:33;15.60;99.90
9980;DHT22;5030;51.532;6.766;2022-10-22T08:33:59;15.80;99.90
9980;DHT22;5030;51.532;6.766;2022-10-22T08:36:24;15.90;99.90
9980;DHT22;5030;51.532;6.766;2022-10-22T08:38:50;16.00;99.90
9980;DHT22;5030;51.532;6.766;2022-10-22T08:41:18;15.90;99.90
9980;DHT22;5030;51.532;6.766;2022-10-22T08:44:09;16.00;99.90
9980;DHT22;5030;51.532;6.766;2022-10-22T08:49:25;16.10;99.90
9980;DHT22;5030;51.532;6.766;2022-10-22T08:51:51;16.10;99.90
9980;DHT22;5030;51.532;6.766;2022-10-22T08:54:32;16.10;99.90
9980;DHT22;5030;51.532;6.766;2022-10-22T09:00:13;16.20;99.90
9980;DHT22;5030;51.532;6.766;2022-10-22T09:08:01;16.40;99.90
9980;DHT22;5030;51.532;6.766;2022-10-22T09:10:32;16.30;99.90
9980;DHT22;5030;51.532;6.766;2022-10-22T09:13:00;16.30;99.90
9980;DHT22;5030;51.532;6.766;2022-10-22T09:15:25;16.40;99.90
9980;DHT22;5030;51.532;6.766;2022-10-22T09:20:41;16.40;99.90
9980;DHT22;5030;51.532;6.766;2022-10-22T09:26:11;16.50;99.90
9980;DHT22;5030;51.532;6.766;2022-10-22T09:28:37;16.50;99.90
9980;DHT22;5030;51.532;6.766;2022-10-22T09:31:12;16.50;99.90
9980;DHT22;5030;51.532;6.766;2022-10-22T09:33:40;16.50;99.90
9980;DHT22;5030;51.532;6.766;2022-10-22T09:36:06;16.70;99.90
9980;DHT22;5030;51.532;6.766;2022-10-22T09:38:41;16.80;99.90
9980;DHT22;5030;51.532;6.766;2022-10-22T09:41:09;16.80;99.90
9980;DHT22;5030;51.532;6.766;2022-10-22T09:43:35;16.80;99.90
9980;DHT22;5030;51.532;6.766;2022-10-22T09:46:03;16.70;99.90
9980;DHT22;5030;51.532;6.766;2022-10-22T09:48:36;16.90;99.90
9980;DHT22;5030;51.532;6.766;2022-10-22T09:51:24;16.90;99.90
9980;DHT22;5030;51.532;6.766;2022-10-22T09:53:57;16.80;99.90
9980;DHT22;5030;51.532;6.766;2022-10-22T09:58:50;16.90;99.90
9980;DHT22;5030;51.532;6.766;2022-10-22T10:01:19;16.90;99.90
9980;DHT22;5030;51.532;6.766;2022-10-22T10:03:47;17.10;99.90
9980;DHT22;5030;51.532;6.766;2022-10-22T10:06:17;17.00;99.90
9980;DHT22;5030;51.532;6.766;2022-10-22T10:08:43;17.00;99.90
9980;DHT22;5030;51.532;6.766;2022-10-22T10:11:22;17.00;99.90
9980;DHT22;5030;51.532;6.766;2022-10-22T10:16:45;17.00;99.90
9980;DHT22;5030;51.532;6.766;2022-10-22T10:19:21;17.10;99.90
9980;DHT22;5030;51.532;6.766;2022-10-22T10:27:49;17.20;99.90
9980;DHT22;5030;51.532;6.766;2022-10-22T10:30:17;17.30;99.90
9980;DHT22;5030;51.532;6.766;2022-10-22T10:35:57;17.40;99.90
9980;DHT22;5030;51.532;6.766;2022-10-22T10:44:05;17.50;99.90
9980;DHT22;5030;51.532;6.766;2022-10-22T10:47:10;17.50;99.90
9980;DHT22;5030;51.532;6.766;2022-10-22T10:49:33;17.50;99.90
9980;DHT22;5030;51.532;6.766;2022-10-22T10:52:28;17.40;99.90
9980;DHT22;5030;51.532;6.766;2022-10-22T10:58:01;17.40;99.90
9980;DHT22;5030;51.532;6.766;2022-10-22T11:00:33;17.40;99.90
9980;DHT22;5030;51.532;6.766;2022-10-22T11:06:02;17.50;99.90
9980;DHT22;5030;51.532;6.766;2022-10-22T11:16:43;17.50;99.90
9980;DHT22;5030;51.532;6.766;2022-10-22T11:19:26;17.40;99.90
9980;DHT22;5030;51.532;6.766;2022-10-22T11:29:53;17.40;99.90
9980;DHT22;5030;51.532;6.766;2022-10-22T11:32:22;17.40;99.90
9980;DHT22;5030;51.532;6.766;2022-10-22T11:34:55;17.60;99.90
9980;DHT22;5030;51.532;6.766;2022-10-22T11:37:24;17.60;99.90
9980;DHT22;5030;51.532;6.766;2022-10-22T11:39:53;17.70;99.90
9980;DHT22;5030;51.532;6.766;2022-10-22T11:47:58;17.50;99.90
9980;DHT22;5030;51.532;6.766;2022-10-22T11:50:27;17.40;99.90
9980;DHT22;5030;51.532;6.766;2022-10-22T11:58:40;17.50;99.90
9980;DHT22;5030;51.532;6.766;2022-10-22T12:11:19;17.40;99.90
9980;DHT22;5030;51.532;6.766;2022-10-22T12:16:21;17.30;99.90
9980;DHT22;5030;51.532;6.766;2022-10-22T12:18:47;17.30;99.90
9980;DHT22;5030;51.532;6.766;2022-10-22T12:21:15;17.30;99.90
9980;DHT22;5030;51.532;6.766;2022-10-22T12:23:42;17.40;99.90
9980;DHT22;5030;51.532;6.766;2022-10-22T12:26:26;17.50;99.90
9980;DHT22;5030;51.532;6.766;2022-10-22T12:29:00;17.60;99.90
9980;DHT22;5030;51.532;6.766;2022-10-22T12:31:26;17.70;99.90
9980;DHT22;5030;51.532;6.766;2022-10-22T12:33:56;17.70;99.90
9980;DHT22;5030;51.532;6.766;2022-10-22T12:36:25;17.80;99.90
9980;DHT22;5030;51.532;6.766;2022-10-22T12:38:51;17.80;99.90
9980;DHT22;5030;51.532;6.766;2022-10-22T12:41:16;17.80;99.90
9980;DHT22;5030;51.532;6.766;2022-10-22T12:43:42;17.80;99.90
9980;DHT22;5030;51.532;6.766;2022-10-22T12:46:11;17.70;99.90
9980;DHT22;5030;51.532;6.766;2022-10-22T12:48:41;17.80;99.90
9980;DHT22;5030;51.532;6.766;2022-10-22T12:51:15;17.90;99.90
9980;DHT22;5030;51.532;6.766;2022-10-22T12:53:52;17.90;99.90
9980;DHT22;5030;51.532;6.766;2022-10-22T12:56:25;17.90;99.90
9980;DHT22;5030;51.532;6.766;2022-10-22T12:58:57;18.00;99.90
9980;DHT22;5030;51.532;6.766;2022-10-22T13:01:26;17.90;99.90
9980;DHT22;5030;51.532;6.766;2022-10-22T13:04:05;17.90;99.90
9980;DHT22;5030;51.532;6.766;2022-10-22T13:06:33;17.90;99.90
9980;DHT22;5030;51.532;6.766;2022-10-22T13:11:46;17.90;99.90
9980;DHT22;5030;51.532;6.766;2022-10-22T13:14:27;17.80;99.90
9980;DHT22;5030;51.532;6.766;2022-10-22T13:20:14;17.90;99.90
9980;DHT22;5030;51.532;6.766;2022-10-22T13:23:00;17.90;99.90
9980;DHT22;5030;51.532;6.766;2022-10-22T13:25:37;17.90;99.90
9980;DHT22;5030;51.532;6.766;2022-10-22T13:28:20;17.90;99.90
9980;DHT22;5030;51.532;6.766;2022-10-22T13:31:27;17.90;99.90
9980;DHT22;5030;51.532;6.766;2022-10-22T13:33:54;18.00;99.90
9980;DHT22;5030;51.532;6.766;2022-10-22T13:36:21;18.00;99.90
9980;DHT22;5030;51.532;6.766;2022-10-22T13:38:47;18.00;99.90
9980;DHT22;5030;51.532;6.766;2022-10-22T13:41:27;18.10;99.90
9980;DHT22;5030;51.532;6.766;2022-10-22T13:43:55;18.00;99.90
9980;DHT22;5030;51.532;6.766;2022-10-22T13:46:22;18.00;99.90
9980;DHT22;5030;51.532;6.766;2022-10-22T13:48:49;18.10;99.90
9980;DHT22;5030;51.532;6.766;2022-10-22T13:51:22;18.10;99.90
9980;DHT22;5030;51.532;6.766;2022-10-22T13:53:51;18.40;99.90
9980;DHT22;5030;51.532;6.766;2022-10-22T13:56:18;18.50;99.90
9980;DHT22;5030;51.532;6.766;2022-10-22T13:58:45;18.30;99.90
9980;DHT22;5030;51.532;6.766;2022-10-22T14:03:41;18.30;99.90
9980;DHT22;5030;51.532;6.766;2022-10-22T14:06:12;18.20;99.90
9980;DHT22;5030;51.532;6.766;2022-10-22T14:08:38;18.20;99.90
9980;DHT22;5030;51.532;6.766;2022-10-22T14:11:04;18.10;99.90
9980;DHT22;5030;51.532;6.766;2022-10-22T14:13:30;18.20;99.90
9980;DHT22;5030;51.532;6.766;2022-10-22T14:15:56;18.30;99.90
9980;DHT22;5030;51.532;6.766;2022-10-22T14:18:24;18.30;99.90
9980;DHT22;5030;51.532;6.766;2022-10-22T14:20:53;18.20;99.90
9980;DHT22;5030;51.532;6.766;2022-10-22T14:23:21;18.10;99.90
9980;DHT22;5030;51.532;6.766;2022-10-22T14:25:48;18.10;99.90
9980;DHT22;5030;51.532;6.766;2022-10-22T14:28:16;17.90;99.90
9980;DHT22;5030;51.532;6.766;2022-10-22T14:30:42;17.80;99.90
9980;DHT22;5030;51.532;6.766;2022-10-22T14:33:15;17.80;99.90
9980;DHT22;5030;51.532;6.766;2022-10-22T14:35:41;17.80;99.90
9980;DHT22;5030;51.532;6.766;2022-10-22T14:38:07;17.80;99.90
9980;DHT22;5030;51.532;6.766;2022-10-22T14:40:33;17.80;99.90
9980;DHT22;5030;51.532;6.766;2022-10-22T14:42:58;18.00;99.90
9980;DHT22;5030;51.532;6.766;2022-10-22T14:45:25;18.10;99.90
9980;DHT22;5030;51.532;6.766;2022-10-22T14:47:52;18.10;99.90
9980;DHT22;5030;51.532;6.766;2022-10-22T14:50:22;18.20;99.90
9980;DHT22;5030;51.532;6.766;2022-10-22T14:52:49;18.10;99.90
9980;DHT22;5030;51.532;6.766;2022-10-22T14:55:16;18.10;99.90
9980;DHT22;5030;51.532;6.766;2022-10-22T14:57:42;18.00;99.90
9980;DHT22;5030;51.532;6.766;2022-10-22T15:00:11;17.90;99.90
9980;DHT22;5030;51.532;6.766;2022-10-22T15:02:37;17.90;99.90
9980;DHT22;5030;51.532;6.766;2022-10-22T15:05:03;17.80;99.90
9980;DHT22;5030;51.532;6.766;2022-10-22T15:07:29;17.80;99.90
9980;DHT22;5030;51.532;6.766;2022-10-22T15:09:55;17.70;99.90
9980;DHT22;5030;51.532;6.766;2022-10-22T15:12:20;17.60;99.90
9980;DHT22;5030;51.532;6.766;2022-10-22T15:14:46;17.60;99.90
9980;DHT22;5030;51.532;6.766;2022-10-22T15:17:13;17.50;99.90
9980;DHT22;5030;51.532;6.766;2022-10-22T15:19:38;17.40;99.90
9980;DHT22;5030;51.532;6.766;2022-10-22T15:22:04;17.40;99.90
9980;DHT22;5030;51.532;6.766;2022-10-22T15:24:31;17.40;99.90
9980;DHT22;5030;51.532;6.766;2022-10-22T15:26:56;17.30;99.90
9980;DHT22;5030;51.532;6.766;2022-10-22T15:29:22;17.20;99.90
9980;DHT22;5030;51.532;6.766;2022-10-22T15:31:53;17.20;99.90
9980;DHT22;5030;51.532;6.766;2022-10-22T15:34:20;17.20;99.90
9980;DHT22;5030;51.532;6.766;2022-10-22T15:36:47;17.20;99.90
9980;DHT22;5030;51.532;6.766;2022-10-22T15:39:12;17.20;99.90
9980;DHT22;5030;51.532;6.766;2022-10-22T15:41:38;17.10;99.90
9980;DHT22;5030;51.532;6.766;2022-10-22T15:44:04;17.00;99.90
9980;DHT22;5030;51.532;6.766;2022-10-22T15:46:34;17.00;99.90
9980;DHT22;5030;51.532;6.766;2022-10-22T15:49:02;17.00;99.90
9980;DHT22;5030;51.532;6.766;2022-10-22T15:51:28;17.00;99.90
9980;DHT22;5030;51.532;6.766;2022-10-22T15:53:56;16.90;99.90
9980;DHT22;5030;51.532;6.766;2022-10-22T15:56:23;16.80;99.90
9980;DHT22;5030;51.532;6.766;2022-10-22T15:58:53;16.70;99.90
9980;DHT22;5030;51.532;6.766;2022-10-22T16:01:19;16.60;99.90
9980;DHT22;5030;51.532;6.766;2022-10-22T16:03:45;16.50;99.90
9980;DHT22;5030;51.532;6.766;2022-10-22T16:06:11;16.30;99.90
9980;DHT22;5030;51.532;6.766;2022-10-22T16:08:37;16.20;99.90
9980;DHT22;5030;51.532;6.766;2022-10-22T16:11:04;16.00;99.90
9980;DHT22;5030;51.532;6.766;2022-10-22T16:13:29;15.80;99.90
9980;DHT22;5030;51.532;6.766;2022-10-22T16:15:55;15.60;99.90
9980;DHT22;5030;51.532;6.766;2022-10-22T16:18:21;15.60;99.90
9980;DHT22;5030;51.532;6.766;2022-10-22T16:20:48;15.50;99.90
9980;DHT22;5030;51.532;6.766;2022-10-22T16:23:13;15.40;99.90
9980;DHT22;5030;51.532;6.766;2022-10-22T16:25:43;15.30;99.90
9980;DHT22;5030;51.532;6.766;2022-10-22T16:28:10;15.20;99.90
9980;DHT22;5030;51.532;6.766;2022-10-22T16:30:37;15.00;99.90
9980;DHT22;5030;51.532;6.766;2022-10-22T16:33:04;14.90;99.90
9980;DHT22;5030;51.532;6.766;2022-10-22T16:35:31;14.80;99.90
9980;DHT22;5030;51.532;6.766;2022-10-22T16:37:56;14.80;99.90
9980;DHT22;5030;51.532;6.766;2022-10-22T16:40:22;14.60;99.90
9980;DHT22;5030;51.532;6.766;2022-10-22T16:42:48;14.50;99.90
9980;DHT22;5030;51.532;6.766;2022-10-22T16:45:14;14.40;99.90
9980;DHT22;5030;51.532;6.766;2022-10-22T16:47:40;14.30;99.90
9980;DHT22;5030;51.532;6.766;2022-10-22T16:50:08;14.20;99.90
9980;DHT22;5030;51.532;6.766;2022-10-22T16:52:34;14.00;99.90
9980;DHT22;5030;51.532;6.766;2022-10-22T16:54:59;13.90;99.90
9980;DHT22;5030;51.532;6.766;2022-10-22T16:57:27;13.90;99.90
9980;DHT22;5030;51.532;6.766;2022-10-22T16:59:53;13.90;99.90
9980;DHT22;5030;51.532;6.766;2022-10-22T17:02:19;13.80;99.90
9980;DHT22;5030;51.532;6.766;2022-10-22T17:04:44;13.70;99.90
9980;DHT22;5030;51.532;6.766;2022-10-22T17:07:10;13.60;99.90
9980;DHT22;5030;51.532;6.766;2022-10-22T17:09:35;13.50;99.90
9980;DHT22;5030;51.532;6.766;2022-10-22T17:12:01;13.50;99.90
9980;DHT22;5030;51.532;6.766;2022-10-22T17:14:27;13.40;99.90
9980;DHT22;5030;51.532;6.766;2022-10-22T17:16:52;13.30;99.90
9980;DHT22;5030;51.532;6.766;2022-10-22T17:19:22;13.30;99.90
9980;DHT22;5030;51.532;6.766;2022-10-22T17:21:48;13.20;99.90
9980;DHT22;5030;51.532;6.766;2022-10-22T17:24:16;13.20;99.90
9980;DHT22;5030;51.532;6.766;2022-10-22T17:26:42;13.10;99.90
9980;DHT22;5030;51.532;6.766;2022-10-22T17:29:10;13.00;99.90
9980;DHT22;5030;51.532;6.766;2022-10-22T17:31:37;13.00;99.90
9980;DHT22;5030;51.532;6.766;2022-10-22T17:34:06;12.90;99.90
9980;DHT22;5030;51.532;6.766;2022-10-22T17:36:34;12.90;99.90
9980;DHT22;5030;51.532;6.766;2022-10-22T17:39:02;12.90;99.90
9980;DHT22;5030;51.532;6.766;2022-10-22T17:41:32;12.80;99.90
9980;DHT22;5030;51.532;6.766;2022-10-22T17:44:00;12.80;99.90
9980;DHT22;5030;51.532;6.766;2022-10-22T17:46:28;12.70;99.90
9980;DHT22;5030;51.532;6.766;2022-10-22T17:48:56;12.70;99.90
9980;DHT22;5030;51.532;6.766;2022-10-22T17:51:24;12.70;99.90
9980;DHT22;5030;51.532;6.766;2022-10-22T17:53:51;12.60;99.90
9980;DHT22;5030;51.532;6.766;2022-10-22T17:56:22;12.50;99.90
9980;DHT22;5030;51.532;6.766;2022-10-22T17:58:48;12.50;99.90
9980;DHT22;5030;51.532;6.766;2022-10-22T18:01:29;12.40;99.90
9980;DHT22;5030;51.532;6.766;2022-10-22T18:03:59;12.40;99.90
9980;DHT22;5030;51.532;6.766;2022-10-22T18:06:26;12.30;99.90